Time;durP1;ratioP1;P1;durP2;ratioP2;P2;SDS_P1;SDS_P2;PMS_P1;PMS_P2;Temp;Humidity;BMP_temperature;BMP_pressure;BME280_temperature;BME280_humidity;BME280_pressure;Samples;Min_cycle;Max_cycle;Signal;HPM_P1;HPM_P2
2021/06/24 00:02:44;;;;;;;11.45;10.25;;;;;;;19.38;68.68;100401.77;153950;1093;103136;-72
2021/06/24 00:05:48;;;;;;;12.27;10.97;;;;;;;19.38;68.76;100399.06;153985;1093;103125;-72
2021/06/24 00:08:50;;;;;;;11.83;10.63;;;;;;;19.36;68.70;100392.17;153927;1100;103265;-72
2021/06/24 00:11:53;;;;;;;12.20;10.90;;;;;;;19.31;68.69;100376.57;153984;1100;103142;-71
2021/06/24 00:14:56;;;;;;;12.80;10.77;;;;;;;19.29;68.78;100378.66;153979;1093;103125;-71
2021/06/24 00:18:00;;;;;;;11.97;10.77;;;;;;;19.27;68.96;100369.09;153935;1093;103128;-71
2021/06/24 00:21:03;;;;;;;12.20;10.50;;;;;;;19.23;68.89;100368.67;153960;1100;103120;-71
2021/06/24 00:24:07;;;;;;;11.07;9.83;;;;;;;19.20;68.80;100364.48;153986;1100;103184;-71
2021/06/24 00:27:10;;;;;;;10.37;9.37;;;;;;;19.19;68.80;100368.25;154011;1100;103564;-71
2021/06/24 00:30:16;;;;;;;10.43;9.33;;;;;;;19.20;68.87;100367.19;154011;1093;103192;-71
2021/06/24 00:33:19;;;;;;;11.10;9.55;;;;;;;19.23;68.73;100371.38;153990;1100;103119;-72
2021/06/24 00:36:22;;;;;;;12.90;10.17;;;;;;;19.19;68.58;100370.13;154036;1093;103137;-71
2021/06/24 00:39:25;;;;;;;14.03;10.53;;;;;;;19.14;68.70;100372.61;153969;1100;103201;-71
2021/06/24 00:42:29;;;;;;;12.70;11.30;;;;;;;19.10;68.64;100371.36;154084;1100;103192;-71
2021/06/24 00:45:33;;;;;;;12.73;11.30;;;;;;;19.01;68.69;100370.70;153981;1100;103240;-71
2021/06/24 00:48:36;;;;;;;10.87;9.70;;;;;;;18.88;68.90;100360.72;153911;1100;103112;-71
2021/06/24 00:51:39;;;;;;;12.10;9.37;;;;;;;18.71;69.05;100357.52;153965;1093;103136;-72
2021/06/24 00:54:42;;;;;;;10.55;9.45;;;;;;;18.73;69.24;100344.64;153949;1093;103257;-72
2021/06/24 00:57:46;;;;;;;13.50;9.93;;;;;;;18.72;69.00;100344.84;154023;1100;103125;-73
2021/06/24 01:00:51;;;;;;;12.90;11.33;;;;;;;18.66;68.95;100345.66;153994;1100;103192;-73
2021/06/24 01:03:54;;;;;;;13.35;11.95;;;;;;;18.47;69.03;100352.66;153961;1093;103155;-73
2021/06/24 01:06:58;;;;;;;13.70;12.05;;;;;;;18.34;69.33;100348.89;154009;1100;103300;-72
2021/06/24 01:10:04;;;;;;;11.50;10.30;;;;;;;18.27;69.48;100350.72;154013;1093;103204;-73
2021/06/24 01:13:10;;;;;;;11.20;10.00;;;;;;;18.27;69.42;100350.72;153979;1100;103122;-72
2021/06/24 01:16:15;;;;;;;12.73;10.78;;;;;;;18.20;69.17;100349.84;153998;1100;103134;-72
2021/06/24 01:19:18;;;;;;;13.65;11.30;;;;;;;18.08;69.33;100343.37;153917;1100;103102;-71
2021/06/24 01:22:21;;;;;;;12.47;10.93;;;;;;;18.00;69.50;100349.77;153982;1093;103154;-73
2021/06/24 01:25:25;;;;;;;16.10;12.07;;;;;;;17.97;69.73;100337.48;153820;1094;103343;-72
2021/06/24 01:28:28;;;;;;;13.03;11.63;;;;;;;17.90;69.58;100343.88;154100;1093;103192;-72
2021/06/24 01:31:32;;;;;;;14.25;11.30;;;;;;;17.80;69.75;100349.59;153965;1093;103195;-72
2021/06/24 01:34:38;;;;;;;13.00;11.07;;;;;;;17.81;69.78;100348.58;153919;1098;103186;-72
2021/06/24 01:37:43;;;;;;;13.83;11.40;;;;;;;17.83;69.67;100338.41;153973;1093;103125;-72
2021/06/24 01:40:47;;;;;;;13.38;11.45;;;;;;;17.82;69.66;100337.59;153982;1094;103260;-73
2021/06/24 01:43:50;;;;;;;13.93;11.67;;;;;;;17.82;69.81;100326.80;154026;1093;103582;-72
2021/06/24 01:46:53;;;;;;;16.78;12.85;;;;;;;17.72;69.81;100333.57;153986;1093;103601;-72
2021/06/24 01:49:57;;;;;;;15.70;13.97;;;;;;;17.76;69.82;100338.36;153938;1094;103206;-70
2021/06/24 01:53:00;;;;;;;13.15;11.45;;;;;;;17.81;69.84;100351.28;153981;1094;103187;-71
2021/06/24 01:56:03;;;;;;;14.77;10.83;;;;;;;17.81;69.76;100348.58;153954;1100;103282;-70
2021/06/24 01:59:07;;;;;;;14.70;12.97;;;;;;;17.79;69.77;100339.85;153961;1093;103159;-71
2021/06/24 02:02:16;;;;;;;15.77;12.57;;;;;;;17.56;69.88;100342.81;153992;1093;103192;-76
2021/06/24 02:05:26;;;;;;;16.13;14.13;;;;;;;17.32;70.14;100349.46;153987;1093;103240;-72
2021/06/24 02:08:30;;;;;;;14.93;13.00;;;;;;;17.24;70.40;100345.90;153977;1100;103131;-71
2021/06/24 02:11:44;;;;;;;14.93;11.63;;;;;;;17.24;70.44;100340.50;153954;1093;103124;-72
2021/06/24 02:14:47;;;;;;;14.53;12.23;;;;;;;17.24;70.43;100329.72;153925;1093;103130;-72
2021/06/24 02:17:50;;;;;;;14.50;12.75;;;;;;;17.34;70.36;100339.31;153992;1100;103336;-73
2021/06/24 02:20:56;;;;;;;18.30;13.10;;;;;;;17.33;70.29;100337.66;153953;1100;103550;-70
2021/06/24 02:24:15;;;;;;;15.08;13.18;;;;;;;17.37;70.48;100347.02;153939;1100;103464;-73
2021/06/24 02:27:23;;;;;;;17.63;13.93;;;;;;;17.41;70.29;100334.81;153951;1093;103289;-72
2021/06/24 02:30:47;;;;;;;16.90;13.93;;;;;;;17.35;70.53;100340.99;153990;1094;103138;-73
2021/06/24 02:33:51;;;;;;;14.98;11.85;;;;;;;17.28;70.34;100346.31;153973;1100;103192;-73
2021/06/24 02:37:08;;;;;;;12.68;10.95;;;;;;;17.22;70.62;100337.14;153974;1100;103470;-72
2021/06/24 02:40:30;;;;;;;13.20;10.60;;;;;;;17.29;70.67;100339.08;153980;1094;103187;-73
2021/06/24 02:43:34;;;;;;;13.08;11.58;;;;;;;17.36;70.60;100342.64;153941;1093;103300;-72
2021/06/24 02:46:38;;;;;;;12.23;10.93;;;;;;;17.48;70.56;100354.58;153966;1093;103101;-72
2021/06/24 02:49:41;;;;;;;14.40;11.73;;;;;;;17.58;70.68;100365.03;153983;1100;103513;-71
2021/06/24 02:52:44;;;;;;;11.68;10.00;;;;;;;17.70;70.45;100354.52;153935;1100;103195;-74
2021/06/24 02:55:47;;;;;;;11.60;10.33;;;;;;;17.82;70.60;100358.33;153966;1094;103133;-73
2021/06/24 02:58:52;;;;;;;12.13;10.63;;;;;;;17.96;70.51;100359.30;153916;1094;103263;-72
2021/06/24 03:02:06;;;;;;;12.73;11.40;;;;;;;18.08;70.38;100368.49;154036;1093;103138;-74
2021/06/24 03:05:15;;;;;;;16.50;12.90;;;;;;;18.18;70.41;100366.25;154122;1093;103242;-75
2021/06/24 03:08:20;;;;;;;15.37;11.83;;;;;;;18.28;70.56;100373.16;154076;1094;103096;-73
2021/06/24 03:11:43;;;;;;;16.00;12.10;;;;;;;18.17;70.60;100366.48;154148;1100;103192;-74
2021/06/24 03:14:47;;;;;;;16.17;11.43;;;;;;;18.08;70.94;100368.49;153981;1100;103259;-74
2021/06/24 03:17:50;;;;;;;17.53;12.20;;;;;;;18.11;71.24;100361.84;154103;1100;103188;-74
2021/06/24 03:20:54;;;;;;;13.70;11.80;;;;;;;18.24;71.18;100356.52;154087;1100;103192;-74
2021/06/24 03:23:57;;;;;;;15.83;13.03;;;;;;;18.43;71.11;100363.86;154006;1100;103189;-74
2021/06/24 03:27:00;;;;;;;15.33;12.45;;;;;;;18.59;71.29;100343.78;153994;1100;103306;-74
2021/06/24 03:30:09;;;;;;;15.60;13.60;;;;;;;18.70;71.36;100336.92;153993;1093;103320;-75
2021/06/24 03:33:13;;;;;;;17.00;13.40;;;;;;;18.82;71.34;100332.63;154006;1100;103136;-74
2021/06/24 03:36:16;;;;;;;15.63;12.73;;;;;;;18.96;71.57;100333.48;153973;1100;103197;-73
2021/06/24 03:39:20;;;;;;;16.58;12.53;;;;;;;19.10;71.52;100328.08;153920;1100;103192;-74
2021/06/24 03:42:23;;;;;;;15.20;12.50;;;;;;;19.25;71.63;100326.01;154002;1100;103116;-73
2021/06/24 03:45:27;;;;;;;16.17;13.77;;;;;;;19.37;71.58;100328.91;153971;1093;103250;-74
2021/06/24 03:48:30;;;;;;;14.65;13.10;;;;;;;19.45;71.70;100325.16;153996;1100;103202;-74
2021/06/24 03:51:48;;;;;;;16.10;13.93;;;;;;;19.53;71.63;100311.40;153964;1093;103195;-74
2021/06/24 03:54:51;;;;;;;14.98;12.80;;;;;;;19.62;71.51;100302.84;153989;1100;103280;-74
2021/06/24 03:57:55;;;;;;;18.20;14.88;;;;;;;19.72;71.81;100296.20;153976;1100;103211;-74
2021/06/24 04:00:59;;;;;;;17.80;14.47;;;;;;;19.84;71.91;100312.62;153942;1093;103234;-75
2021/06/24 04:04:03;;;;;;;17.17;15.10;;;;;;;19.93;71.85;100301.34;154012;1093;103241;-74
2021/06/24 04:07:13;;;;;;;;;;;;;;;20.03;71.95;100306.30;153957;1100;103192;-73
2021/06/24 04:10:15;;;;;;;;;;;;;;;20.11;72.13;100318.77;153985;1101;103234;-73
2021/06/24 04:13:18;;;;;;;17.17;14.37;;;;;;;20.15;72.11;100338.97;153948;1094;103180;-73
2021/06/24 04:16:21;;;;;;;15.80;13.75;;;;;;;20.18;72.11;100335.84;154031;1101;103190;-72
2021/06/24 04:19:24;;;;;;;18.13;13.80;;;;;;;20.18;72.10;100341.27;153993;1101;103162;-74
2021/06/24 04:22:29;;;;;;;16.17;14.47;;;;;;;20.24;72.28;100340.39;153986;1093;103230;-73
2021/06/24 04:25:58;;;;;;;17.37;14.77;;;;;;;20.35;72.16;100339.73;153945;1100;103189;-72
2021/06/24 04:29:02;;;;;;;22.07;17.87;;;;;;;20.40;72.24;100337.22;153956;1093;103211;-71
2021/06/24 04:32:06;;;;;;;21.47;16.80;;;;;;;20.45;72.15;100335.73;154579;1093;103133;-71
2021/06/24 04:35:11;;;;;;;19.77;15.63;;;;;;;20.52;72.15;100321.09;154583;1093;103291;-72
2021/06/24 04:38:15;;;;;;;21.03;16.98;;;;;;;20.61;72.27;100318.98;154557;1098;103133;-72
2021/06/24 04:41:20;;;;;;;22.63;18.67;;;;;;;20.56;72.41;100325.03;154614;1098;103190;-71
2021/06/24 04:44:35;;;;;;;22.38;18.28;;;;;;;20.52;72.69;100304.01;154532;1098;103188;-72
2021/06/24 04:47:39;;;;;;;22.00;18.37;;;;;;;20.63;72.60;100302.50;154601;1098;103143;-72
2021/06/24 04:50:43;;;;;;;19.97;16.63;;;;;;;20.82;72.76;100298.81;154571;1093;103220;-72
2021/06/24 04:53:46;;;;;;;19.90;16.67;;;;;;;21.03;72.58;100289.48;154596;1093;103132;-75
2021/06/24 04:56:55;;;;;;;21.25;18.63;;;;;;;21.29;72.47;100279.47;154558;1098;103121;-73
2021/06/24 05:00:16;;;;;;;24.40;19.93;;;;;;;21.61;72.43;100279.38;153962;1100;103190;-73
2021/06/24 05:03:37;;;;;;;30.50;23.30;;;;;;;21.93;72.03;100280.89;153948;1100;103194;-73
2021/06/24 05:06:41;;;;;;;21.77;18.70;;;;;;;22.08;72.09;100274.25;154585;1093;103492;-73
2021/06/24 05:09:45;;;;;;;25.53;21.00;;;;;;;22.23;71.74;100266.52;154615;1098;103189;-73
2021/06/24 05:12:48;;;;;;;22.73;19.40;;;;;;;22.29;72.05;100243.06;154658;1093;103141;-71
2021/06/24 05:15:51;;;;;;;25.93;20.90;;;;;;;22.46;72.00;100229.61;154616;1093;103493;-73
2021/06/24 05:18:54;;;;;;;26.80;20.73;;;;;;;22.46;71.82;100248.64;154605;1098;103240;-73
2021/06/24 05:21:57;;;;;;;21.15;18.85;;;;;;;22.52;71.60;100269.50;154550;1093;103188;-72
2021/06/24 05:25:00;;;;;;;22.77;18.63;;;;;;;22.53;72.11;100282.02;154589;1098;103188;-73
2021/06/24 05:28:04;;;;;;;20.33;17.20;;;;;;;22.49;71.79;100262.61;154548;1098;103119;-73
2021/06/24 05:31:06;;;;;;;18.30;16.30;;;;;;;22.43;72.04;100265.44;154574;1098;103236;-73
2021/06/24 05:34:09;;;;;;;19.83;16.73;;;;;;;22.35;72.11;100286.45;154567;1098;103188;-73
2021/06/24 05:37:12;;;;;;;20.47;17.43;;;;;;;22.26;71.99;100287.82;154577;1098;103195;-72
2021/06/24 05:40:16;;;;;;;27.77;20.60;;;;;;;22.08;72.27;100268.81;154598;1093;103134;-74
2021/06/24 05:43:19;;;;;;;24.15;19.25;;;;;;;21.90;72.64;100270.49;154555;1098;103188;-74
2021/06/24 05:46:22;;;;;;;21.23;17.50;;;;;;;21.81;72.60;100263.70;154562;1098;103113;-73
2021/06/24 05:49:25;;;;;;;17.80;15.90;;;;;;;21.76;72.74;100285.27;153995;1101;103114;-73
2021/06/24 05:52:28;;;;;;;22.43;20.03;;;;;;;21.69;72.93;100288.07;154570;1098;103259;-73
2021/06/24 05:55:49;;;;;;;24.73;21.60;;;;;;;21.43;72.95;100299.99;154630;1098;103189;-73
2021/06/24 05:58:51;;;;;;;;;;;;;;;21.31;73.29;100324.32;154609;1098;103119;-74
2021/06/24 06:01:53;;;;;;;;;;;;;;;21.28;73.46;100340.22;154579;1098;103185;-74
2021/06/24 06:04:56;;;;;;;19.60;16.10;;;;;;;21.19;73.38;100364.09;154651;1098;103172;-73
2021/06/24 06:07:59;;;;;;;22.53;19.30;;;;;;;21.09;73.48;100372.70;154419;1098;103190;-73
2021/06/24 06:11:02;;;;;;;25.67;19.40;;;;;;;20.96;73.82;100365.50;154190;1093;103329;-73
2021/06/24 06:14:05;;;;;;;21.85;17.30;;;;;;;20.82;74.04;100368.51;154612;1094;103236;-74
2021/06/24 06:17:08;;;;;;;19.30;17.17;;;;;;;20.69;74.33;100381.11;154632;1093;103112;-74
2021/06/24 06:20:13;;;;;;;24.00;18.80;;;;;;;20.54;77.13;100370.50;154543;1098;103147;-74
2021/06/24 06:23:18;;;;;;;23.13;19.65;;;;;;;20.40;75.07;100391.42;154578;1093;103196;-74
2021/06/24 06:26:21;;;;;;;21.67;17.47;;;;;;;20.42;75.00;100425.59;154592;1093;103125;-74
2021/06/24 06:29:24;;;;;;;20.73;16.97;;;;;;;20.47;74.82;100414.95;154542;1093;103189;-74
2021/06/24 06:32:27;;;;;;;18.03;15.67;;;;;;;20.53;74.75;100398.64;154563;1098;103141;-74
2021/06/24 06:35:30;;;;;;;16.20;13.75;;;;;;;20.59;74.65;100443.04;154616;1093;103184;-74
2021/06/24 06:38:33;;;;;;;14.75;10.80;;;;;;;20.59;74.57;100451.17;154584;1093;103147;-74
2021/06/24 06:41:36;;;;;;;10.45;8.85;;;;;;;20.61;74.28;100442.86;154551;1098;103258;-73
2021/06/24 06:44:38;;;;;;;12.27;8.87;;;;;;;20.58;74.37;100444.10;154619;1098;103201;-74
2021/06/24 06:47:42;;;;;;;13.00;10.03;;;;;;;20.59;74.46;100443.04;154558;1098;103122;-73
2021/06/24 06:50:45;;;;;;;13.57;11.10;;;;;;;20.59;74.34;100445.75;154579;1098;103499;-74
2021/06/24 06:53:48;;;;;;;12.00;9.27;;;;;;;20.55;74.50;100449.94;154644;1098;103157;-73
2021/06/24 06:56:51;;;;;;;11.30;8.50;;;;;;;20.54;74.13;100427.42;154239;1098;103218;-73
2021/06/24 06:59:54;;;;;;;11.70;8.23;;;;;;;20.51;73.98;100379.05;154493;1098;103214;-74
2021/06/24 07:02:58;;;;;;;13.00;8.73;;;;;;;20.48;74.22;100365.95;154422;1098;103215;-72
2021/06/24 07:06:01;;;;;;;12.27;8.37;;;;;;;20.45;74.27;100395.36;154657;1093;103235;-73
2021/06/24 07:09:05;;;;;;;12.30;8.23;;;;;;;20.44;74.51;100355.73;154211;1093;103110;-75
2021/06/24 07:12:10;;;;;;;11.70;8.43;;;;;;;20.40;74.41;100310.11;154277;1093;103128;-74
2021/06/24 07:15:14;;;;;;;13.15;8.55;;;;;;;20.39;74.36;100294.88;154365;1098;103188;-73
2021/06/24 07:18:17;;;;;;;13.07;8.80;;;;;;;20.36;74.46;100276.37;154488;1098;103144;-73
2021/06/24 07:21:20;;;;;;;13.63;8.87;;;;;;;20.32;74.43;100222.80;154354;1098;103109;-73
2021/06/24 07:24:23;;;;;;;8.93;7.10;;;;;;;20.23;74.28;100181.61;154113;1098;103589;-74
2021/06/24 07:27:26;;;;;;;7.67;5.07;;;;;;;20.18;73.93;100157.03;153919;1100;103275;-73
2021/06/24 07:30:29;;;;;;;7.93;5.40;;;;;;;20.12;74.23;100147.91;154009;1100;103195;-75
2021/06/24 07:33:34;;;;;;;11.63;6.47;;;;;;;20.08;74.36;100121.48;153949;1094;103175;-74
2021/06/24 07:36:37;;;;;;;9.25;7.05;;;;;;;20.06;74.28;100137.13;153959;1100;103096;-73
2021/06/24 07:39:40;;;;;;;10.77;6.30;;;;;;;19.96;74.37;100156.56;153971;1093;103128;-72
2021/06/24 07:42:43;;;;;;;8.13;5.17;;;;;;;19.89;74.40;100153.05;153971;1100;103251;-73
2021/06/24 07:45:46;;;;;;;6.93;4.40;;;;;;;19.88;74.09;100178.45;153998;1100;103211;-73
2021/06/24 07:48:49;;;;;;;7.63;3.47;;;;;;;19.84;74.20;100144.73;154004;1094;103131;-73
2021/06/24 07:51:51;;;;;;;7.00;3.20;;;;;;;19.72;74.06;100174.38;153952;1100;103125;-74
2021/06/24 07:54:54;;;;;;;4.95;2.20;;;;;;;19.64;74.00;100129.40;153969;1100;103133;-74
2021/06/24 07:57:57;;;;;;;4.53;2.07;;;;;;;19.54;73.78;100075.73;153930;1100;103227;-71
2021/06/24 08:01:00;;;;;;;7.83;2.57;;;;;;;19.51;73.91;99984.15;154003;1094;103208;-73
2021/06/24 08:04:06;;;;;;;7.23;2.90;;;;;;;19.49;73.91;100066.61;153975;1100;104741;-74
2021/06/24 08:07:10;;;;;;;4.77;1.70;;;;;;;19.47;74.27;100115.52;153984;1100;103183;-73
2021/06/24 08:10:15;;;;;;;5.53;1.53;;;;;;;19.43;73.99;100052.06;153932;1093;103128;-74
2021/06/24 08:13:18;;;;;;;3.77;1.40;;;;;;;19.38;74.50;100076.22;154178;1093;103118;-73
2021/06/24 08:16:21;;;;;;;4.03;1.60;;;;;;;19.40;74.33;100076.86;154390;1099;103129;-73
2021/06/24 08:19:24;;;;;;;2.33;1.40;;;;;;;19.49;74.36;100080.13;154194;1093;103174;-73
2021/06/24 08:22:28;;;;;;;3.67;1.37;;;;;;;19.62;74.59;100099.02;154694;1093;103094;-73
2021/06/24 08:25:30;;;;;;;2.37;1.43;;;;;;;19.74;74.54;100110.84;154200;1093;103279;-73
2021/06/24 08:28:33;;;;;;;3.13;1.50;;;;;;;19.91;74.57;100130.11;154588;1098;103273;-73
2021/06/24 08:31:36;;;;;;;2.97;1.63;;;;;;;20.09;74.39;100120.42;154670;1094;103120;-73
2021/06/24 08:34:39;;;;;;;5.07;1.60;;;;;;;20.30;74.46;100116.52;154640;1093;103122;-73
2021/06/24 08:37:42;;;;;;;3.40;1.67;;;;;;;20.52;74.36;100120.51;154579;1093;103119;-73
2021/06/24 08:40:46;;;;;;;5.40;1.70;;;;;;;20.78;74.40;100124.91;154694;1098;103149;-73
2021/06/24 08:43:50;;;;;;;4.40;2.00;;;;;;;21.07;74.14;100119.78;154630;1098;103199;-73
2021/06/24 08:46:57;;;;;;;2.98;2.10;;;;;;;21.42;74.13;100124.62;154693;1098;103116;-72
2021/06/24 08:50:01;;;;;;;3.90;1.90;;;;;;;21.79;73.71;100134.59;154607;1098;103133;-74
2021/06/24 08:53:05;;;;;;;2.83;1.70;;;;;;;22.19;73.70;100139.45;154597;1093;104719;-73
2021/06/24 08:56:08;;;;;;;3.13;2.00;;;;;;;22.55;73.34;100169.22;154586;1093;103188;-72
2021/06/24 08:59:11;;;;;;;4.33;1.48;;;;;;;22.71;72.97;100180.47;154652;1098;103188;-72
2021/06/24 09:02:17;;;;;;;2.73;1.50;;;;;;;22.78;72.34;100183.92;154647;1093;103117;-72
2021/06/24 09:05:20;;;;;;;2.03;1.40;;;;;;;22.94;73.30;100187.82;154608;1093;103147;-72
2021/06/24 09:08:37;;;;;;;1.67;1.33;;;;;;;23.40;72.73;100183.44;154638;1093;103189;-72
2021/06/24 09:11:40;;;;;;;3.45;1.55;;;;;;;23.80;72.50;100188.10;154613;1093;103132;-72
2021/06/24 09:14:46;;;;;;;3.97;1.30;;;;;;;24.10;71.96;100197.95;154556;1098;103326;-73
2021/06/24 09:17:49;;;;;;;5.00;1.80;;;;;;;24.14;70.81;100201.84;154626;1098;103193;-73
2021/06/24 09:20:52;;;;;;;2.20;1.20;;;;;;;24.21;71.24;100186.17;154633;1093;103121;-72
2021/06/24 09:23:54;;;;;;;2.57;1.40;;;;;;;24.41;71.25;100182.15;154631;1093;103105;-72
2021/06/24 09:27:00;;;;;;;3.87;1.47;;;;;;;24.72;70.71;100188.14;154691;1093;103121;-73
2021/06/24 09:30:07;;;;;;;3.08;1.35;;;;;;;24.75;69.38;100204.85;154616;1098;103251;-73
2021/06/24 09:33:12;;;;;;;3.68;1.28;;;;;;;24.84;70.32;100205.25;154607;1098;103201;-72
2021/06/24 09:36:32;;;;;;;3.65;1.40;;;;;;;25.04;70.51;100197.38;154628;1098;103107;-74
2021/06/24 09:39:37;;;;;;;4.23;1.40;;;;;;;25.28;70.62;100197.19;154629;1093;103187;-73
2021/06/24 09:42:40;;;;;;;2.30;1.30;;;;;;;25.40;69.35;100202.53;154635;1093;103100;-73
2021/06/24 09:46:00;;;;;;;3.05;1.50;;;;;;;25.43;69.27;100215.70;154596;1098;103185;-73
2021/06/24 09:49:05;;;;;;;2.67;1.40;;;;;;;25.42;68.48;100227.69;154647;1093;103125;-72
2021/06/24 09:52:07;;;;;;;1.80;1.20;;;;;;;25.40;68.64;100222.48;154626;1093;103125;-72
2021/06/24 09:55:13;;;;;;;3.43;1.53;;;;;;;25.49;68.65;100219.33;154616;1098;103144;-73
2021/06/24 09:58:17;;;;;;;3.07;1.67;;;;;;;25.55;68.41;100218.31;154624;1093;103579;-73
2021/06/24 10:01:34;;;;;;;2.23;1.30;;;;;;;25.55;68.31;100219.13;154614;1098;103180;-73
2021/06/24 10:04:39;;;;;;;2.40;1.67;;;;;;;25.61;68.29;100229.04;154662;1093;103128;-73
2021/06/24 10:07:43;;;;;;;3.95;1.68;;;;;;;25.70;67.88;100240.37;154248;1098;103190;-73
2021/06/24 10:10:46;;;;;;;2.53;1.90;;;;;;;25.79;68.12;100240.73;154600;1098;103195;-72
2021/06/24 10:13:50;;;;;;;3.30;1.60;;;;;;;25.75;66.95;100229.52;154627;1098;103179;-73
2021/06/24 10:16:54;;;;;;;3.00;2.00;;;;;;;25.70;67.53;100237.64;154610;1093;103207;-73
2021/06/24 10:19:57;;;;;;;2.80;1.73;;;;;;;25.70;67.36;100242.28;154603;1093;103572;-72
2021/06/24 10:23:03;;;;;;;3.93;1.70;;;;;;;25.69;67.30;100241.44;154139;1099;103172;-74
2021/06/24 10:26:09;;;;;;;2.55;1.25;;;;;;;25.72;67.19;100234.66;154659;1098;103480;-73
2021/06/24 10:29:14;;;;;;;3.73;1.70;;;;;;;25.75;67.49;100228.66;154712;1093;103170;-72
2021/06/24 10:32:32;;;;;;;3.60;1.50;;;;;;;25.75;67.16;100224.05;154690;1098;103125;-72
2021/06/24 10:35:37;;;;;;;3.63;1.40;;;;;;;25.79;67.34;100227.06;154665;1093;103104;-72
2021/06/24 10:38:42;;;;;;;3.70;1.40;;;;;;;25.83;66.90;100231.79;154665;1093;103195;-72
2021/06/24 10:42:08;;;;;;;2.83;1.80;;;;;;;25.86;66.84;100220.33;154629;1098;103110;-72
2021/06/24 10:45:17;;;;;;;3.48;1.58;;;;;;;25.93;66.69;100222.91;154616;1093;103047;-72
2021/06/24 10:48:27;;;;;;;3.40;1.70;;;;;;;25.99;66.20;100226.53;154673;1098;103675;-72
2021/06/24 10:51:34;;;;;;;4.23;1.50;;;;;;;26.09;66.61;100229.38;154659;1093;103208;-72
2021/06/24 10:54:42;;;;;;;4.47;1.70;;;;;;;26.22;66.50;100218.03;154670;1098;103141;-72
2021/06/24 10:57:45;;;;;;;2.50;1.83;;;;;;;26.34;66.02;100214.31;154213;1098;103229;-72
2021/06/24 11:00:49;;;;;;;5.53;1.80;;;;;;;26.51;66.33;100215.02;154616;1093;103275;-72
2021/06/24 11:03:53;;;;;;;2.83;1.50;;;;;;;26.64;65.93;100209.15;154621;1093;103297;-72
2021/06/24 11:06:58;;;;;;;3.65;1.40;;;;;;;26.70;65.84;100200.99;154643;1093;103132;-72
2021/06/24 11:10:23;;;;;;;3.38;1.53;;;;;;;26.77;66.22;100196.09;154602;1098;103113;-72
2021/06/24 11:13:47;;;;;;;3.03;1.70;;;;;;;26.83;65.25;100195.89;154209;1093;103134;-73
2021/06/24 11:16:50;;;;;;;3.25;1.60;;;;;;;26.89;65.20;100204.12;154646;1098;103196;-72
2021/06/24 11:20:14;;;;;;;2.80;1.85;;;;;;;26.94;65.64;100202.24;154616;1098;103350;-72
2021/06/24 11:23:30;;;;;;;3.33;2.00;;;;;;;26.99;64.83;100205.03;154632;1098;103556;-72
2021/06/24 11:26:35;;;;;;;4.93;1.85;;;;;;;27.03;64.69;100203.41;154638;1098;103211;-72
2021/06/24 11:29:46;;;;;;;2.93;1.80;;;;;;;27.07;64.42;100200.16;154187;1099;103222;-72
2021/06/24 11:32:52;;;;;;;2.63;1.50;;;;;;;27.08;64.26;100199.05;154594;1093;103194;-72
2021/06/24 11:36:10;;;;;;;4.27;1.73;;;;;;;27.07;64.21;100194.67;154619;1098;103310;-72
2021/06/24 11:39:20;;;;;;;3.40;1.90;;;;;;;27.10;63.84;100188.66;154653;1093;103486;-72
2021/06/24 11:42:29;;;;;;;4.37;2.37;;;;;;;27.06;64.00;100193.02;154569;1098;103189;-72
2021/06/24 11:45:32;;;;;;;3.97;2.07;;;;;;;27.10;63.80;100194.13;154607;1098;103221;-72
2021/06/24 11:48:35;;;;;;;3.93;2.07;;;;;;;27.11;64.03;100185.66;154619;1098;103189;-72
2021/06/24 12:05:15;;;;;;;4.60;2.60;;;;;;;27.44;62.77;100160.92;154657;1093;104619;-72
2021/06/24 12:08:22;;;;;;;3.90;2.40;;;;;;;27.55;62.86;100170.84;154569;1093;103276;-72
2021/06/24 12:11:34;;;;;;;3.25;2.80;;;;;;;27.63;63.00;100170.31;154675;1098;103086;-72
2021/06/24 12:14:42;;;;;;;7.03;3.10;;;;;;;27.66;62.86;100169.80;154590;1093;103181;-73
2021/06/24 12:17:45;;;;;;;4.70;3.13;;;;;;;27.71;62.77;100172.53;154575;1098;103129;-72
2021/06/24 12:20:48;;;;;;;4.67;3.23;;;;;;;27.73;62.46;100161.30;154106;1098;103148;-72
2021/06/24 12:23:51;;;;;;;3.90;3.30;;;;;;;27.79;62.06;100162.95;154186;1099;103220;-74
2021/06/24 12:26:54;;;;;;;3.90;3.43;;;;;;;27.81;62.35;100147.91;154202;1098;103119;-72
2021/06/24 12:29:59;;;;;;;4.67;2.90;;;;;;;27.84;62.16;100153.94;154103;1099;103024;-72
2021/06/24 12:33:05;;;;;;;4.68;3.48;;;;;;;27.86;61.83;100151.75;154027;1100;103484;-72
2021/06/24 12:36:08;;;;;;;5.40;3.67;;;;;;;27.85;61.94;100153.68;154096;1100;103192;-72
2021/06/24 12:39:14;;;;;;;5.33;3.80;;;;;;;27.86;62.24;100140.78;154077;1098;104371;-72
2021/06/24 12:42:18;;;;;;;6.50;3.63;;;;;;;27.90;61.90;100136.43;154045;1100;103199;-72
2021/06/24 12:45:24;;;;;;;5.37;3.57;;;;;;;27.92;61.75;100134.23;154072;1100;103132;-72
2021/06/24 12:48:30;;;;;;;5.88;3.75;;;;;;;27.95;61.75;100128.22;153959;1093;103187;-73
2021/06/24 12:51:38;;;;;;;5.73;3.73;;;;;;;27.98;61.59;100122.17;153966;1100;103097;-72
2021/06/24 12:54:41;;;;;;;3.87;3.33;;;;;;;27.99;61.61;100129.33;153966;1093;103310;-72
2021/06/24 12:57:52;;;;;;;10.47;4.17;;;;;;;27.97;61.29;100121.36;153996;1100;103193;-72
2021/06/24 13:00:59;;;;;;;5.53;3.70;;;;;;;28.00;61.53;100109.02;153996;1100;103192;-72
2021/06/24 13:04:10;;;;;;;5.00;3.60;;;;;;;27.94;61.68;100110.92;154006;1093;103130;-72
2021/06/24 13:07:13;;;;;;;6.58;3.53;;;;;;;27.96;62.02;100100.50;154080;1093;103124;-72
2021/06/24 13:10:16;;;;;;;4.73;3.70;;;;;;;28.00;61.29;100101.63;154000;1093;103284;-73
2021/06/24 13:13:33;;;;;;;6.50;3.83;;;;;;;27.96;61.72;100092.27;154058;1093;103096;-72
2021/06/24 13:16:38;;;;;;;5.05;3.80;;;;;;;28.01;61.27;100088.73;154136;1100;103124;-72
2021/06/24 13:19:49;;;;;;;5.78;4.00;;;;;;;28.06;62.00;100091.48;154103;1100;103139;-73
2021/06/24 13:23:04;;;;;;;3.83;3.15;;;;;;;28.10;61.00;100080.77;154011;1100;103342;-72
2021/06/24 13:26:12;;;;;;;6.80;3.63;;;;;;;28.14;60.87;100074.47;153965;1093;103484;-72
2021/06/24 13:29:21;;;;;;;6.13;3.68;;;;;;;28.20;61.09;100073.38;154004;1093;103122;-72
2021/06/24 13:32:28;;;;;;;5.93;3.90;;;;;;;28.27;61.76;100075.01;153983;1093;103107;-72
2021/06/24 13:35:31;;;;;;;5.90;3.70;;;;;;;28.34;61.05;100070.07;154012;1093;103107;-72
2021/06/24 13:38:34;;;;;;;4.83;3.77;;;;;;;28.40;61.17;100068.96;153986;1100;103212;-72
2021/06/24 13:41:38;;;;;;;4.87;3.77;;;;;;;28.49;60.96;100070.05;153929;1094;103232;-72
2021/06/24 13:44:40;;;;;;;6.33;5.03;;;;;;;28.57;61.17;100066.77;154039;1093;103179;-72
2021/06/24 13:47:43;;;;;;;6.10;4.13;;;;;;;28.73;60.88;100072.22;153954;1100;103183;-73
2021/06/24 13:50:46;;;;;;;5.23;4.07;;;;;;;28.93;60.03;100069.42;153955;1100;103198;-73
2021/06/24 13:53:57;;;;;;;5.37;4.77;;;;;;;29.10;59.93;100068.25;154039;1100;103666;-72
2021/06/24 13:57:00;;;;;;;6.50;4.40;;;;;;;29.31;60.08;100061.61;153948;1093;103183;-72
2021/06/24 14:00:06;;;;;;;5.03;4.30;;;;;;;29.52;59.66;100055.98;153994;1100;103102;-72
2021/06/24 14:03:15;;;;;;;4.93;3.80;;;;;;;29.67;59.34;100053.13;153987;1094;103184;-71
2021/06/24 14:06:19;;;;;;;6.43;4.60;;;;;;;29.72;58.78;100044.89;153988;1100;103591;-72
2021/06/24 14:09:22;;;;;;;4.17;3.30;;;;;;;29.71;59.24;100040.45;154005;1094;103148;-71